Racecast

Maria Smith-Lopez

unattached (CA) · - · EASTWY D4A4A · Compare head to head

Athlete rating 128.4 2017 TF season
Best race 131.9 XC
Races 75
Seasons 7 2012 — 2023

RankedNation #4926·CO #160·Team #7 ?

Speed rating — all races

Cross Country

XC speed rating

2016 XC 126.7

Laramie (WY) · Grade 12

Date Meet Event Result Place Rating Difficulty PR/SR Flags
2016-10-22 Sheridan VA Medical Center 5000m 19:19.8 10th · 3rd on team 131.9 +0.027 ★CR ★R CSR RSR
2016-10-14 Prairie View Golf Course 5000m 20:15.1 7th · 3rd on team 125.2 +0.023 ★CR CSR
2016-09-30 Margaret W. Carpenter Recreation Center 5000m 20:37 43rd · 6th on team 122.2 +0.014 CSR
2016-09-17 Fort Collins High School 5000m 20:15 17th · 4th on team 125.3 +0.023 ★CR CSR
2016-09-09 Heritage High School 5000m 19:17 15th · 2nd on team 128.9 -0.001 SR CSR RSR

2015 XC 126.0

Laramie (WY) · Grade 11

Date Meet Event Result Place Rating Difficulty PR/SR Flags
2015-10-24 Sheridan VA Medical Center 5000m 19:44.4 11th · 2nd on team 127.3 +0.027 CSR
2015-10-02 Margaret W. Carpenter Recreation Center 5000m 19:55 11th · 1st on team 126.6 +0.014 ★CR CSR
2015-09-26 Eagle Island State Park 5000m 21:17.3 55th · 2nd on team 120.0 +0.029 ★CR CSR
2015-09-11 Heritage High School 5000m 19:12 11th · 1st on team 128.9 -0.001 ★PR ★CR SR CSR RSR
2015-08-28 Beartrap Meadow Park 5000m 21:13 2nd · 1st on team 127.1 +0.104 ★CR SR CSR RSR

2014 XC 123.3

Laramie (WY) · Grade 10

Date Meet Event Result Place Rating Difficulty PR/SR Flags
2014-10-25 Sheridan VA Medical Center 5000m 19:21.7 7th · 1st on team 130.6 +0.027 PR CR SR CSR RSR
2014-09-26 Robbinsdale Park 4000m 17:04.5 18th · 2nd on team 117.7 +0.037 ★CR SR CSR
2014-09-12 Heritage High School 5000m 19:36 13th · 2nd on team 123.9 -0.001 PR CR SR CSR RSR
2014-08-30 University of Wyoming 5000m 22:10.9 5th · 2nd on team 121.0 +0.093 ★CR SR CSR RSR

2013 XC 120.6

Laramie (WY) · Grade 9

Date Meet Event Result Place Rating Difficulty PR/SR Flags
2013-10-26 Sheridan VA Medical Center 5000m 19:36.4 5th · 1st on team 131.2 +0.027 PR CR R SR CSR RSR
2013-09-27 Elks Golf Course 4000m 16:20.2 49th · 5th on team 120.0 +0.006 ★PR ★CR R SR CSR RSR
2013-09-06 Rawlins High School 5000m 23:00 6th · 6th on team 115.5 +0.081 PR ★CR SR CSR
2013-08-30 Beartrap Meadow Park 5000m 23:29.4 26th · 5th on team 115.7 +0.104 PR CR R SR CSR RSR

2012 XC 93.7

Laramie (WY) · Grade 8

Date Meet Event Result Place Rating Difficulty PR/SR Flags
2012-09-14 Paradise Valley Country Club 2500m 10:47 2nd · 2nd on team 93.7 ★PR ★CR R SR CSR RSR

Track & Field

TF speed rating

2023 TF 97.7

unattached (CA) · Grade -

Date Meet Event Result Place Rating Difficulty PR/SR Flags
2023-05-19 Track Night NYC 1500m 5:31.23 25th · 11th on team 97.7 -0.037 ★PR SR RSR

2017 TF 122.2

Laramie (WY) · Grade 12

Date Meet Event Result Place Rating Difficulty PR/SR Flags
2017-05-20 WY WHSAA State 4A Meet 3200m 12:50.13 20th · 4th on team 118.0 -0.012
2017-05-20 WY WHSAA State 4A Meet 1600m 5:34.69 13th · 3rd on team 125.5 -0.012
2017-05-13 WHSAA 4A East Regional 3200m 12:48.33 9th · 4th on team 119.2 -0.012
2017-05-05 Wiseman Invite 1600m 5:55.82 5th · 2nd on team 118.3 -0.012
2017-04-22 Poudre Invitational 1600m 5:28.24 6th · 2nd on team 128.3 -0.009 SR
2017-04-13 South Twilight 1600m 5:58.58 3rd · 3rd on team 119.1 -0.001
2017-04-07 Okie Blanchard Invitational 1600m 5:47.56 6th · 3rd on team 123.3 +0.006
2017-04-07 Okie Blanchard Invitational 3200m 12:33.11 1st · 1st on team 123.7 +0.006
2017-04-01 Altitude Running Invitational 1600m 5:37.11 10th · 3rd on team 125.3 -0.011
2017-04-01 Altitude Running Invitational 800m 2:42.76 19th · 3rd on team 115.7 -0.011 SR
2017-03-25 Runners Roost of Fort Collins Invitational 3200m 11:56.11 7th · 3rd on team 127.6 -0.012 SR
2017-03-25 Runners Roost of Fort Collins Invitational 1600m 5:42.83 14th · 2nd on team 122.7 -0.012
2017-03-03 Wyoming State Indoor Track Championships 1600m 5:33.92 8th · 2nd on team 126.1 -0.023 SR
2017-03-03 Wyoming State Indoor Track Championships 3200m 12:26.8 11th · 4th on team 121.7 -0.023
2017-02-18 Simplot Games 3200m 11:57.21 35th · 1st on team 128.4 -0.023 SR RSR
2017-02-10 Laramie-Shine Invitational 1600m 5:51.83 5th · 1st on team 123.1 -0.005
2017-02-04 Air Force HS Indoor Open 2miles 12:56.64 6th · 1st on team 119.8 -0.004 ★PR SR
2017-02-04 Air Force HS Indoor Open 1mile 5:54.22 22nd · 1st on team 121.5 -0.004 ★PR SR
2017-01-21 Campbell County Indoor 800m 2:43.77 9th · 2nd on team 114.8 -0.023 SR
2017-01-21 Campbell County Indoor 1600m 5:51.26 6th · 2nd on team 119.8 -0.023
2017-01-14 Stadium Sports Grill HS Classic 3200m 12:19.26 3rd · 2nd on team 123.0 -0.023 SR RSR
2017-01-14 Stadium Sports Grill HS Classic 1600m 5:42.07 6th · 2nd on team 123.1 -0.023 SR RSR

2016 TF 123.4

Laramie (WY) · Grade 11

Date Meet Event Result Place Rating Difficulty PR/SR Flags
2016-05-21 WY WHSAA State 4A Meet 3200m 12:41.15 9th · 1st on team 120.3 -0.012
2016-05-21 WY WHSAA State 4A Meet 1600m 5:27.31 6th · 1st on team 129.1 -0.012 ★PR SR
2016-05-13 4A East Regional 3200m 11:51.05 1st · 1st on team 130.7 +0.006 SR RSR
2016-05-06 Wiseman Invitational 1600m 5:33.11 2nd · 1st on team 126.3 -0.012 SR
2016-04-15 Natrona Invite 3200m 12:24.35 2nd · 1st on team 123.3 -0.003
2016-04-15 Natrona Invite 1600m 5:42.57 2nd · 1st on team 124.1 -0.003 SR
2016-04-08 Okie Blanch Invite 1600m 5:53.93 6th · 1st on team 120.7 +0.006
2016-04-02 Altitude Running Invitational 1600m 5:44.69 5th · 1st on team 122.2 -0.011 SR
2016-04-02 Altitude Running Invitational 3200m 12:09.49 6th · 1st on team 125.6 -0.011
2016-02-18 Simplot Games - Day 1 3200m 12:06.41 22nd · 1st on team 126.7 -0.023 SR RSR
2016-01-23 Campbell County HS Indoor Invitational 800m 2:47.49 20th · 4th on team 112.0 -0.023 SR RSR
2016-01-23 Campbell County HS Indoor Invitational 1600m 5:53.19 7th · 1st on team 119.2 -0.023 SR RSR

2015 TF 125.0

Laramie (WY) · Grade 10

Date Meet Event Result Place Rating Difficulty PR/SR Flags
2015-05-21 WHSAA State 1A 2A 3A 4A Track & Field Championship 3200m 11:49.97 5th · 1st on team 127.9 -0.012
2015-05-08 Wiseman Invitational 3200m 11:34.84 2nd · 2nd on team 131.3 -0.012 ★PR R SR RSR
2015-05-01 DPS Viking Invitational 1600m 5:34.69 6th · 1st on team 126.2 -0.011
2015-05-01 DPS Viking Invitational 800m 2:35.3 9th · 2nd on team 120.6 -0.011 ★PR SR
2015-04-24 LoboCat Roundup 1600m 5:34.56 5th · 2nd on team 126.6 -0.011
2015-04-10 Okie Blanchard Invite 1600m 5:43.29 4th · 2nd on team 124.6 +0.006
2015-04-10 Okie Blanchard Invite 3200m 12:21.74 3rd · 1st on team 124.2 +0.006
2015-03-28 Altitude Running Invitational 3200m 12:38.5 4th · 1st on team 121.0 -0.009
2015-03-28 Altitude Running Invitational 1600m 5:56.51 12th · 2nd on team 119.1 -0.009
2015-03-06 WY State Indoor Track Championships 3200m 11:57.42 4th · 1st on team 126.5 -0.023 SR RSR
2015-03-06 WY State Indoor Track Championships 1600m 5:31.95 10th · 2nd on team 127.4 -0.023 PR SR RSR

2014 TF 121.5

Laramie (WY) · Grade 9

Date Meet Event Result Place Rating Difficulty PR/SR Flags
2014-05-24 WHSAA 4A Track & Field Championships 1600m 5:39.33 13th · 2nd on team 124.4 -0.012 PR SR
2014-05-24 WHSAA 4A Track & Field Championships 3200m 13:02.99 14th · 1st on team 115.9 -0.012
2014-05-16 4A East Regional 3200m 12:17.17 2nd · 1st on team 124.6 -0.001
2014-05-16 4A East Regional 1600m 5:41.92 7th · 2nd on team 125.1 -0.001
2014-04-11 Okie Blanchard Invite 1600m 5:47.08 6th · 3rd on team 122.8 -0.001
2014-04-11 Okie Blanchard Invite 800m 2:47.87 10th · 4th on team 112.6 -0.001
2014-03-28 NC Invite 1600m 5:47.16 7th · 1st on team 122.9 -0.003
2014-03-28 NC Invite 800m 2:41.12 9th · 1st on team 117.4 -0.003 PR SR
2014-03-07 State Indoor 1600m 5:40.74 15th · 1st on team 123.4 -0.012 PR SR RSR
2014-03-07 State Indoor 3200m 11:55.23 9th · 1st on team 126.1 -0.012 PR SR RSR